Christina O — C6FN7 — position and weather

sailwx.info

Track history (hours):
 
Tides and Currents Weather Stations Pressure Air Temp Water Temp Dewpoint Dewpoint Depression Visibility Wind Speed Wind Dir Waves Ship Positions

Christina O

Operator: V Ships Leisure SAM

Last reported at 2015-May-05 12:14 UTC. Time now 2015-May-06 04:25 UTC.
Position N 40°25' W 070°23'.

Length 186 m; draft 6.1 m.

Type: Ship. MMSI: 308322000.

Date/timePositionNaut miles runAvg speedWind from/ knotsBaromVisibWave heightAir tempDewpointWater temp
2015-May-05 12:14N 40°25' W 070°23'1417.4
2015-May-05 11:27N 40°24' W 070°41'1517.2
2015-May-05 10:34N 40°24' W 071°01'1717.4
2015-May-05 09:34N 40°24' W 071°24'1717.0
2015-May-05 08:34N 40°23' W 071°46'1716.6
2015-May-05 07:33N 40°23' W 072°08'1716.7
2015-May-05 06:33N 40°23' W 072°30'1716.5
2015-May-05 05:33N 40°22' W 072°51'1616.4
2015-May-05 04:33N 40°22' W 073°13'1616.4
2015-May-05 03:34N 40°25' W 073°34'1515.2
2015-May-05 02:33N 40°29' W 073°54'407407.7
2015-May-05 01:33N 33°41' W 074°02'425408.2
2015-May-05 00:31N 40°46' W 073°60'0 0.0
2015-May-04 23:31N 40°46' W 073°60'0 0.0
2015-May-04 22:28N 40°46' W 073°60'0 0.0
2015-May-04 21:31N 40°46' W 073°60'0 0.0
2015-May-04 20:28N 40°46' W 073°60'0 0.0
2015-May-04 19:31N 40°46' W 073°60'0 0.0
2015-May-04 18:31N 40°46' W 073°60'0 0.0
2015-May-04 17:31N 40°46' W 073°60'0 0.0
2015-May-04 16:31N 40°46' W 073°60'0 0.0
2015-May-04 15:31N 40°46' W 073°60'0 0.0
2015-May-04 14:31N 40°46' W 073°60'0 0.0
2015-May-04 13:31N 40°46' W 073°60'0 0.0
2015-May-04 12:31N 40°46' W 073°60'1 0.9
2015-May-04 11:33N 40°45' W 074°01'5 5.1
2015-May-04 10:33N 40°41' W 074°03'1413.7
2015-May-04 09:33N 40°29' W 073°53'1414.0
2015-May-04 08:34N 40°16' W 073°45'1717.2
2015-May-04 07:33N 39°59' W 073°44'1716.9
2015-May-04 06:33N 39°42' W 073°44'1716.9
2015-May-04 05:33N 39°26' W 073°50'1716.9
2015-May-04 04:33N 39°10' W 073°56'1717.1
2015-May-04 03:33N 38°54' W 074°03'1717.2
2015-May-04 02:33N 38°37' W 074°10'1717.2
2015-May-04 01:33N 38°21' W 074°17'1717.4
2015-May-04 00:33N 38°04' W 074°23'1717.5
2015-May-03 23:33N 37°47' W 074°29'2017.3
2015-May-03 22:25N 37°29' W 074°36'70815.4
2015-May-02 00:26N 26°32' W 079°50'1516.9
2015-May-01 23:33N 26°19' W 079°57'1514.9
2015-May-01 22:33N 26°06' W 080°05'2 1.8
2015-May-01 21:32N 26°05' W 080°07'0 0.0
2015-May-01 20:29N 26°05' W 080°07'0 0.0
2015-May-01 19:32N 26°05' W 080°07'0 0.0
2015-May-01 18:32N 26°05' W 080°07'0 0.0
2015-May-01 17:32N 26°05' W 080°07'0 0.0
2015-May-01 16:32N 26°05' W 080°07'0 0.0
2015-May-01 15:32N 26°05' W 080°07'0 0.0
2015-May-01 14:32N 26°05' W 080°07'0 0.0
2015-May-01 13:23N 26°05' W 080°07'0 0.0
2015-May-01 12:23N 26°05' W 080°07'0 0.0
2015-May-01 11:26N 26°05' W 080°07'0 0.0
2015-May-01 10:33N 26°05' W 080°07'10 9.5
2015-May-01 09:34N 26°06' W 079°57'1615.7
2015-May-01 08:33N 26°08' W 079°39'1615.6
2015-May-01 07:33N 26°11' W 079°22'  
2015-Apr-28 05:33N 18°12' W 064°53'6815.6
2015-Apr-28 01:11N 18°01' W 063°43'1117.9
2015-Apr-28 00:33N 17°59' W 063°31'1613.8
2015-Apr-27 23:24N 17°57' W 063°14'1415.0
2015-Apr-27 22:28N 17°55' W 062°60'9 0.9
2015-Apr-27 12:10N 17°47' W 062°55'19815.7
2015-Apr-26 23:34N 14°46' W 061°29'1716.8
2015-Apr-26 22:34N 14°32' W 061°21'1717.1
2015-Apr-26 21:34N 14°17' W 061°13'1615.9
2015-Apr-26 20:34N 14°03' W 061°04'5 0.5
2015-Apr-26 11:11N 14°01' W 060°60'4 5.6
2015-Apr-26 10:32N 14°03' W 061°03'1110.9
2015-Apr-26 09:31N 13°54' W 061°10'  
Track history (hours):
 
Tides and Currents Weather Stations Pressure Air Temp Water Temp Dewpoint Dewpoint Depression Visibility Wind Speed Wind Dir Waves Ship Positions

Christina O

Operator: V Ships Leisure SAM

Last reported at 2015-May-05 12:14 UTC. Time now 2015-May-06 04:25 UTC.
Position N 40°25' W 070°23'.

Length 186 m; draft 6.1 m.

Type: Ship. MMSI: 308322000.

Date/timePositionNaut miles runAvg speedWind from/ knotsBaromVisibWave heightAir tempDewpointWater temp
2015-May-05 12:14N 40°25' W 070°23'1417.4
2015-May-05 11:27N 40°24' W 070°41'1517.2
2015-May-05 10:34N 40°24' W 071°01'1717.4
2015-May-05 09:34N 40°24' W 071°24'1717.0
2015-May-05 08:34N 40°23' W 071°46'1716.6
2015-May-05 07:33N 40°23' W 072°08'1716.7
2015-May-05 06:33N 40°23' W 072°30'1716.5
2015-May-05 05:33N 40°22' W 072°51'1616.4
2015-May-05 04:33N 40°22' W 073°13'1616.4
2015-May-05 03:34N 40°25' W 073°34'1515.2
2015-May-05 02:33N 40°29' W 073°54'407407.7
2015-May-05 01:33N 33°41' W 074°02'425408.2
2015-May-05 00:31N 40°46' W 073°60'0 0.0
2015-May-04 23:31N 40°46' W 073°60'0 0.0
2015-May-04 22:28N 40°46' W 073°60'0 0.0
2015-May-04 21:31N 40°46' W 073°60'0 0.0
2015-May-04 20:28N 40°46' W 073°60'0 0.0
2015-May-04 19:31N 40°46' W 073°60'0 0.0
2015-May-04 18:31N 40°46' W 073°60'0 0.0
2015-May-04 17:31N 40°46' W 073°60'0 0.0
2015-May-04 16:31N 40°46' W 073°60'0 0.0
2015-May-04 15:31N 40°46' W 073°60'0 0.0
2015-May-04 14:31N 40°46' W 073°60'0 0.0
2015-May-04 13:31N 40°46' W 073°60'0 0.0
2015-May-04 12:31N 40°46' W 073°60'1 0.9
2015-May-04 11:33N 40°45' W 074°01'5 5.1
2015-May-04 10:33N 40°41' W 074°03'1413.7
2015-May-04 09:33N 40°29' W 073°53'1414.0
2015-May-04 08:34N 40°16' W 073°45'1717.2
2015-May-04 07:33N 39°59' W 073°44'1716.9
2015-May-04 06:33N 39°42' W 073°44'1716.9
2015-May-04 05:33N 39°26' W 073°50'1716.9
2015-May-04 04:33N 39°10' W 073°56'1717.1
2015-May-04 03:33N 38°54' W 074°03'1717.2
2015-May-04 02:33N 38°37' W 074°10'1717.2
2015-May-04 01:33N 38°21' W 074°17'1717.4
2015-May-04 00:33N 38°04' W 074°23'1717.5
2015-May-03 23:33N 37°47' W 074°29'2017.3
2015-May-03 22:25N 37°29' W 074°36'70815.4
2015-May-02 00:26N 26°32' W 079°50'1516.9
2015-May-01 23:33N 26°19' W 079°57'1514.9
2015-May-01 22:33N 26°06' W 080°05'2 1.8
2015-May-01 21:32N 26°05' W 080°07'0 0.0
2015-May-01 20:29N 26°05' W 080°07'0 0.0
2015-May-01 19:32N 26°05' W 080°07'0 0.0
2015-May-01 18:32N 26°05' W 080°07'0 0.0
2015-May-01 17:32N 26°05' W 080°07'0 0.0
2015-May-01 16:32N 26°05' W 080°07'0 0.0
2015-May-01 15:32N 26°05' W 080°07'0 0.0
2015-May-01 14:32N 26°05' W 080°07'0 0.0
2015-May-01 13:23N 26°05' W 080°07'0 0.0
2015-May-01 12:23N 26°05' W 080°07'0 0.0
2015-May-01 11:26N 26°05' W 080°07'0 0.0
2015-May-01 10:33N 26°05' W 080°07'10 9.5
2015-May-01 09:34N 26°06' W 079°57'1615.7
2015-May-01 08:33N 26°08' W 079°39'1615.6
2015-May-01 07:33N 26°11' W 079°22'  
2015-Apr-28 05:33N 18°12' W 064°53'6815.6
2015-Apr-28 01:11N 18°01' W 063°43'1117.9
2015-Apr-28 00:33N 17°59' W 063°31'1613.8
2015-Apr-27 23:24N 17°57' W 063°14'1415.0
2015-Apr-27 22:28N 17°55' W 062°60'9 0.9
2015-Apr-27 12:10N 17°47' W 062°55'19815.7
2015-Apr-26 23:34N 14°46' W 061°29'1716.8
2015-Apr-26 22:34N 14°32' W 061°21'1717.1
2015-Apr-26 21:34N 14°17' W 061°13'1615.9
2015-Apr-26 20:34N 14°03' W 061°04'5 0.5
2015-Apr-26 11:11N 14°01' W 060°60'4 5.6
2015-Apr-26 10:32N 14°03' W 061°03'1110.9
2015-Apr-26 09:31N 13°54' W 061°10'  

Dump ship's entire track history